English Center, Pennsylvania
Current Conditions -  °F | °C
As of 3:54 PM on Friday 31 Oct 2014 (Local Time) from KIPT Reporting Station
Overcast Overcast  
Wind Chill: 50°   Ceiling: 6000
Heat Index: 50°   Visibility: 10mi
Dew Point: 32°   Wind: 5mph
Humidity: 50%   Direction: 280°W
Pressure: 29.88"   Gusts: NA
Location:  41.3465°N, 77.3228°W
Report Text: KIPT 311954Z 28004KT 10SM OVC060 10/00 A2988 RMK AO2 SLP121 T01000000
Loading
Personal Weather Stations






























Interactive Weather Map New forecast layout! Learn more

10-Day Weather Forecast

Advertisements
Track Severe Weather on mobile